sensor_id;sensor_type;location;lat;lon;timestamp;temperature;humidity
2523;DHT22;1272;53.332;9.860;2022-08-01T00:01:24;18.90;99.90
2523;DHT22;1272;53.332;9.860;2022-08-01T00:03:50;18.90;99.90
2523;DHT22;1272;53.332;9.860;2022-08-01T00:06:15;18.90;99.90
2523;DHT22;1272;53.332;9.860;2022-08-01T00:08:41;18.90;99.90
2523;DHT22;1272;53.332;9.860;2022-08-01T00:11:07;19.00;99.90
2523;DHT22;1272;53.332;9.860;2022-08-01T00:13:34;19.00;99.90
2523;DHT22;1272;53.332;9.860;2022-08-01T00:16:00;18.90;99.90
2523;DHT22;1272;53.332;9.860;2022-08-01T00:18:26;18.90;99.90
2523;DHT22;1272;53.332;9.860;2022-08-01T00:20:52;18.90;99.90
2523;DHT22;1272;53.332;9.860;2022-08-01T00:23:18;18.90;99.90
2523;DHT22;1272;53.332;9.860;2022-08-01T00:25:43;18.90;99.90
2523;DHT22;1272;53.332;9.860;2022-08-01T00:28:09;18.90;99.90
2523;DHT22;1272;53.332;9.860;2022-08-01T00:30:35;18.90;99.90
2523;DHT22;1272;53.332;9.860;2022-08-01T00:33:02;18.80;99.90
2523;DHT22;1272;53.332;9.860;2022-08-01T00:35:27;18.90;99.90
2523;DHT22;1272;53.332;9.860;2022-08-01T00:37:53;18.80;99.90
2523;DHT22;1272;53.332;9.860;2022-08-01T00:40:19;18.80;99.90
2523;DHT22;1272;53.332;9.860;2022-08-01T00:42:44;18.80;99.90
2523;DHT22;1272;53.332;9.860;2022-08-01T00:45:11;18.80;99.90
2523;DHT22;1272;53.332;9.860;2022-08-01T00:47:37;18.80;99.90
2523;DHT22;1272;53.332;9.860;2022-08-01T00:50:06;18.80;99.90
2523;DHT22;1272;53.332;9.860;2022-08-01T00:52:33;18.80;99.90
2523;DHT22;1272;53.332;9.860;2022-08-01T00:54:59;18.80;99.90
2523;DHT22;1272;53.332;9.860;2022-08-01T00:57:25;18.80;99.90
2523;DHT22;1272;53.332;9.860;2022-08-01T00:59:51;18.90;99.90
2523;DHT22;1272;53.332;9.860;2022-08-01T01:02:17;18.80;99.90
2523;DHT22;1272;53.332;9.860;2022-08-01T01:04:43;18.90;99.90
2523;DHT22;1272;53.332;9.860;2022-08-01T01:13:12;18.90;99.90
2523;DHT22;1272;53.332;9.860;2022-08-01T01:15:42;18.80;99.90
2523;DHT22;1272;53.332;9.860;2022-08-01T01:18:17;18.80;99.90
2523;DHT22;1272;53.332;9.860;2022-08-01T01:29:27;18.80;99.90
2523;DHT22;1272;53.332;9.860;2022-08-01T01:32:05;18.80;99.90
2523;DHT22;1272;53.332;9.860;2022-08-01T01:34:35;18.80;99.90
2523;DHT22;1272;53.332;9.860;2022-08-01T01:37:05;18.80;99.90
2523;DHT22;1272;53.332;9.860;2022-08-01T01:39:32;18.80;99.90
2523;DHT22;1272;53.332;9.860;2022-08-01T01:42:00;18.70;99.90
2523;DHT22;1272;53.332;9.860;2022-08-01T01:44:27;18.70;99.90
2523;DHT22;1272;53.332;9.860;2022-08-01T01:46:55;18.60;99.90
2523;DHT22;1272;53.332;9.860;2022-08-01T01:49:24;18.60;99.90
2523;DHT22;1272;53.332;9.860;2022-08-01T01:51:54;18.60;99.90
2523;DHT22;1272;53.332;9.860;2022-08-01T01:54:21;18.60;99.90
2523;DHT22;1272;53.332;9.860;2022-08-01T01:56:49;18.80;99.90
2523;DHT22;1272;53.332;9.860;2022-08-01T01:59:20;18.70;99.90
2523;DHT22;1272;53.332;9.860;2022-08-01T02:01:48;18.60;99.90
2523;DHT22;1272;53.332;9.860;2022-08-01T02:04:15;18.60;99.90
2523;DHT22;1272;53.332;9.860;2022-08-01T02:06:43;18.50;99.90
2523;DHT22;1272;53.332;9.860;2022-08-01T02:09:11;18.50;99.90
2523;DHT22;1272;53.332;9.860;2022-08-01T02:11:38;18.50;99.90
2523;DHT22;1272;53.332;9.860;2022-08-01T02:14:06;18.50;99.90
2523;DHT22;1272;53.332;9.860;2022-08-01T02:16:37;18.50;99.90
2523;DHT22;1272;53.332;9.860;2022-08-01T02:19:05;18.50;99.90
2523;DHT22;1272;53.332;9.860;2022-08-01T02:21:37;18.50;99.90
2523;DHT22;1272;53.332;9.860;2022-08-01T02:24:13;18.40;99.90
2523;DHT22;1272;53.332;9.860;2022-08-01T02:26:44;18.40;99.90
2523;DHT22;1272;53.332;9.860;2022-08-01T02:29:19;18.40;99.90
2523;DHT22;1272;53.332;9.860;2022-08-01T02:31:47;18.50;99.90
2523;DHT22;1272;53.332;9.860;2022-08-01T02:34:17;18.50;99.90
2523;DHT22;1272;53.332;9.860;2022-08-01T02:36:44;18.40;99.90
2523;DHT22;1272;53.332;9.860;2022-08-01T02:39:14;18.40;99.90
2523;DHT22;1272;53.332;9.860;2022-08-01T02:41:47;18.40;99.90
2523;DHT22;1272;53.332;9.860;2022-08-01T02:44:21;18.40;99.90
2523;DHT22;1272;53.332;9.860;2022-08-01T02:46:58;18.40;99.90
2523;DHT22;1272;53.332;9.860;2022-08-01T02:49:31;18.40;99.90
2523;DHT22;1272;53.332;9.860;2022-08-01T02:51:59;18.40;99.90
2523;DHT22;1272;53.332;9.860;2022-08-01T02:54:28;18.40;99.90
2523;DHT22;1272;53.332;9.860;2022-08-01T02:56:55;18.40;99.90
2523;DHT22;1272;53.332;9.860;2022-08-01T02:59:23;18.40;99.90
2523;DHT22;1272;53.332;9.860;2022-08-01T03:01:53;18.40;99.90
2523;DHT22;1272;53.332;9.860;2022-08-01T03:04:22;18.40;99.90
2523;DHT22;1272;53.332;9.860;2022-08-01T03:06:48;18.40;99.90
2523;DHT22;1272;53.332;9.860;2022-08-01T03:09:15;18.40;99.90
2523;DHT22;1272;53.332;9.860;2022-08-01T03:11:42;18.40;99.90
2523;DHT22;1272;53.332;9.860;2022-08-01T03:14:10;18.30;99.90
2523;DHT22;1272;53.332;9.860;2022-08-01T03:16:38;18.30;99.90
2523;DHT22;1272;53.332;9.860;2022-08-01T03:19:07;18.30;99.90
2523;DHT22;1272;53.332;9.860;2022-08-01T03:21:34;18.30;99.90
2523;DHT22;1272;53.332;9.860;2022-08-01T03:24:01;18.30;99.90
2523;DHT22;1272;53.332;9.860;2022-08-01T03:26:30;18.30;99.90
2523;DHT22;1272;53.332;9.860;2022-08-01T03:29:02;18.30;99.90
2523;DHT22;1272;53.332;9.860;2022-08-01T03:31:34;18.30;99.90
2523;DHT22;1272;53.332;9.860;2022-08-01T03:34:00;18.30;99.90
2523;DHT22;1272;53.332;9.860;2022-08-01T03:36:28;18.30;99.90
2523;DHT22;1272;53.332;9.860;2022-08-01T03:38:58;18.30;99.90
2523;DHT22;1272;53.332;9.860;2022-08-01T03:41:27;18.30;99.90
2523;DHT22;1272;53.332;9.860;2022-08-01T03:44:00;18.30;99.90
2523;DHT22;1272;53.332;9.860;2022-08-01T03:46:32;18.30;99.90
2523;DHT22;1272;53.332;9.860;2022-08-01T03:49:06;18.30;99.90
2523;DHT22;1272;53.332;9.860;2022-08-01T03:51:35;18.20;99.90
2523;DHT22;1272;53.332;9.860;2022-08-01T03:54:03;18.30;99.90
2523;DHT22;1272;53.332;9.860;2022-08-01T03:56:30;18.30;99.90
2523;DHT22;1272;53.332;9.860;2022-08-01T03:58:59;18.30;99.90
2523;DHT22;1272;53.332;9.860;2022-08-01T04:01:26;18.20;99.90
2523;DHT22;1272;53.332;9.860;2022-08-01T04:03:52;18.30;99.90
2523;DHT22;1272;53.332;9.860;2022-08-01T04:06:18;18.20;99.90
2523;DHT22;1272;53.332;9.860;2022-08-01T04:08:44;18.10;99.90
2523;DHT22;1272;53.332;9.860;2022-08-01T04:11:21;18.20;99.90
2523;DHT22;1272;53.332;9.860;2022-08-01T04:13:47;18.10;99.90
2523;DHT22;1272;53.332;9.860;2022-08-01T04:16:13;18.10;99.90
2523;DHT22;1272;53.332;9.860;2022-08-01T04:18:39;18.10;99.90
2523;DHT22;1272;53.332;9.860;2022-08-01T04:21:05;18.10;99.90
2523;DHT22;1272;53.332;9.860;2022-08-01T04:23:31;18.10;99.90
2523;DHT22;1272;53.332;9.860;2022-08-01T04:26:02;18.10;99.90
2523;DHT22;1272;53.332;9.860;2022-08-01T04:28:31;18.10;99.90
2523;DHT22;1272;53.332;9.860;2022-08-01T04:31:00;18.10;99.90
2523;DHT22;1272;53.332;9.860;2022-08-01T04:33:28;18.20;99.90
2523;DHT22;1272;53.332;9.860;2022-08-01T04:35:56;18.20;99.90
2523;DHT22;1272;53.332;9.860;2022-08-01T04:38:25;18.20;99.90
2523;DHT22;1272;53.332;9.860;2022-08-01T04:40:55;18.20;99.90
2523;DHT22;1272;53.332;9.860;2022-08-01T04:43:21;18.20;99.90
2523;DHT22;1272;53.332;9.860;2022-08-01T04:45:49;18.20;99.90
2523;DHT22;1272;53.332;9.860;2022-08-01T04:48:17;18.20;99.90
2523;DHT22;1272;53.332;9.860;2022-08-01T04:50:45;18.30;99.90
2523;DHT22;1272;53.332;9.860;2022-08-01T04:53:18;18.20;99.90
2523;DHT22;1272;53.332;9.860;2022-08-01T04:55:45;18.20;99.90
2523;DHT22;1272;53.332;9.860;2022-08-01T04:58:12;18.20;99.90
2523;DHT22;1272;53.332;9.860;2022-08-01T05:00:38;18.20;99.90
2523;DHT22;1272;53.332;9.860;2022-08-01T05:03:04;18.20;99.90
2523;DHT22;1272;53.332;9.860;2022-08-01T05:05:29;18.20;99.90
2523;DHT22;1272;53.332;9.860;2022-08-01T05:07:56;18.20;99.90
2523;DHT22;1272;53.332;9.860;2022-08-01T05:10:21;18.20;99.90
2523;DHT22;1272;53.332;9.860;2022-08-01T05:12:47;18.20;99.90
2523;DHT22;1272;53.332;9.860;2022-08-01T05:15:13;18.20;99.90
2523;DHT22;1272;53.332;9.860;2022-08-01T05:17:41;18.10;99.90
2523;DHT22;1272;53.332;9.860;2022-08-01T05:20:10;18.20;99.90
2523;DHT22;1272;53.332;9.860;2022-08-01T05:22:37;18.10;99.90
2523;DHT22;1272;53.332;9.860;2022-08-01T05:25:03;18.10;99.90
2523;DHT22;1272;53.332;9.860;2022-08-01T05:27:30;18.10;99.90
2523;DHT22;1272;53.332;9.860;2022-08-01T05:29:56;18.10;99.90
2523;DHT22;1272;53.332;9.860;2022-08-01T05:32:22;18.10;99.90
2523;DHT22;1272;53.332;9.860;2022-08-01T05:34:48;18.10;99.90
2523;DHT22;1272;53.332;9.860;2022-08-01T05:37:13;18.10;99.90
2523;DHT22;1272;53.332;9.860;2022-08-01T05:39:39;18.20;99.90
2523;DHT22;1272;53.332;9.860;2022-08-01T05:42:05;18.20;99.90
2523;DHT22;1272;53.332;9.860;2022-08-01T05:44:31;18.20;99.90
2523;DHT22;1272;53.332;9.860;2022-08-01T05:46:57;18.20;99.90
2523;DHT22;1272;53.332;9.860;2022-08-01T05:49:22;18.20;99.90
2523;DHT22;1272;53.332;9.860;2022-08-01T05:51:49;18.20;99.90
2523;DHT22;1272;53.332;9.860;2022-08-01T05:54:14;18.30;99.90
2523;DHT22;1272;53.332;9.860;2022-08-01T05:56:40;18.30;99.90
2523;DHT22;1272;53.332;9.860;2022-08-01T05:59:06;18.30;99.90
2523;DHT22;1272;53.332;9.860;2022-08-01T06:01:32;18.30;99.90
2523;DHT22;1272;53.332;9.860;2022-08-01T06:03:58;18.30;99.90
2523;DHT22;1272;53.332;9.860;2022-08-01T06:06:23;18.40;99.90
2523;DHT22;1272;53.332;9.860;2022-08-01T06:08:49;18.40;99.90
2523;DHT22;1272;53.332;9.860;2022-08-01T06:11:15;18.40;99.90
2523;DHT22;1272;53.332;9.860;2022-08-01T06:13:41;18.60;99.90
2523;DHT22;1272;53.332;9.860;2022-08-01T06:16:06;18.50;99.90
2523;DHT22;1272;53.332;9.860;2022-08-01T06:18:32;18.50;99.90
2523;DHT22;1272;53.332;9.860;2022-08-01T06:20:58;18.60;99.90
2523;DHT22;1272;53.332;9.860;2022-08-01T06:23:23;18.60;99.90
2523;DHT22;1272;53.332;9.860;2022-08-01T06:25:52;18.60;99.90
2523;DHT22;1272;53.332;9.860;2022-08-01T06:28:19;18.70;99.90
2523;DHT22;1272;53.332;9.860;2022-08-01T06:30:45;18.70;99.90
2523;DHT22;1272;53.332;9.860;2022-08-01T06:33:11;18.80;99.90
2523;DHT22;1272;53.332;9.860;2022-08-01T06:35:36;18.80;99.90
2523;DHT22;1272;53.332;9.860;2022-08-01T06:38:02;18.80;99.90
2523;DHT22;1272;53.332;9.860;2022-08-01T06:40:28;18.80;99.90
2523;DHT22;1272;53.332;9.860;2022-08-01T06:42:54;18.80;99.90
2523;DHT22;1272;53.332;9.860;2022-08-01T06:45:20;18.70;99.90
2523;DHT22;1272;53.332;9.860;2022-08-01T06:47:48;18.80;99.90
2523;DHT22;1272;53.332;9.860;2022-08-01T06:50:14;18.70;99.90
2523;DHT22;1272;53.332;9.860;2022-08-01T06:52:40;18.80;99.90
2523;DHT22;1272;53.332;9.860;2022-08-01T06:55:06;18.60;99.90
2523;DHT22;1272;53.332;9.860;2022-08-01T06:57:32;18.60;99.90
2523;DHT22;1272;53.332;9.860;2022-08-01T07:00:02;18.50;99.90
2523;DHT22;1272;53.332;9.860;2022-08-01T07:02:28;18.50;99.90
2523;DHT22;1272;53.332;9.860;2022-08-01T07:04:54;18.40;99.90
2523;DHT22;1272;53.332;9.860;2022-08-01T07:07:19;18.40;99.90
2523;DHT22;1272;53.332;9.860;2022-08-01T07:09:45;18.40;99.90
2523;DHT22;1272;53.332;9.860;2022-08-01T07:12:11;18.30;99.90
2523;DHT22;1272;53.332;9.860;2022-08-01T07:14:36;18.30;99.90
2523;DHT22;1272;53.332;9.860;2022-08-01T07:17:02;18.20;99.90
2523;DHT22;1272;53.332;9.860;2022-08-01T07:19:28;18.20;99.90
2523;DHT22;1272;53.332;9.860;2022-08-01T07:21:53;18.20;99.90
2523;DHT22;1272;53.332;9.860;2022-08-01T07:24:19;18.20;99.90
2523;DHT22;1272;53.332;9.860;2022-08-01T07:26:46;18.10;99.90
2523;DHT22;1272;53.332;9.860;2022-08-01T07:29:12;18.30;99.90
2523;DHT22;1272;53.332;9.860;2022-08-01T07:31:38;18.30;99.90
2523;DHT22;1272;53.332;9.860;2022-08-01T07:34:04;18.30;99.90
2523;DHT22;1272;53.332;9.860;2022-08-01T07:36:29;18.40;99.90
2523;DHT22;1272;53.332;9.860;2022-08-01T07:38:55;18.30;99.90
2523;DHT22;1272;53.332;9.860;2022-08-01T07:41:21;18.30;99.90
2523;DHT22;1272;53.332;9.860;2022-08-01T07:43:46;18.40;99.90
2523;DHT22;1272;53.332;9.860;2022-08-01T07:46:14;18.30;99.90
2523;DHT22;1272;53.332;9.860;2022-08-01T07:48:40;18.40;99.90
2523;DHT22;1272;53.332;9.860;2022-08-01T07:51:06;18.40;99.90
2523;DHT22;1272;53.332;9.860;2022-08-01T07:53:31;18.40;99.90
2523;DHT22;1272;53.332;9.860;2022-08-01T07:55:57;18.50;99.90
2523;DHT22;1272;53.332;9.860;2022-08-01T07:58:23;18.50;99.90
2523;DHT22;1272;53.332;9.860;2022-08-01T08:00:48;18.70;99.90
2523;DHT22;1272;53.332;9.860;2022-08-01T08:03:14;18.70;99.90
2523;DHT22;1272;53.332;9.860;2022-08-01T08:05:40;18.80;99.90
2523;DHT22;1272;53.332;9.860;2022-08-01T08:08:06;18.90;99.90
2523;DHT22;1272;53.332;9.860;2022-08-01T08:10:32;18.80;99.90
2523;DHT22;1272;53.332;9.860;2022-08-01T08:12:58;18.80;99.90
2523;DHT22;1272;53.332;9.860;2022-08-01T08:15:24;18.70;99.90
2523;DHT22;1272;53.332;9.860;2022-08-01T08:17:50;18.70;99.90
2523;DHT22;1272;53.332;9.860;2022-08-01T08:20:16;18.70;99.90
2523;DHT22;1272;53.332;9.860;2022-08-01T08:22:41;18.80;75.00
2523;DHT22;1272;53.332;9.860;2022-08-01T08:25:08;18.70;72.10
2523;DHT22;1272;53.332;9.860;2022-08-01T08:27:35;18.70;28.00
2523;DHT22;1272;53.332;9.860;2022-08-01T08:30:01;18.70;83.70
2523;DHT22;1272;53.332;9.860;2022-08-01T08:32:27;18.80;71.60
2523;DHT22;1272;53.332;9.860;2022-08-01T08:34:53;18.90;1.00
2523;DHT22;1272;53.332;9.860;2022-08-01T08:37:18;19.00;1.00
2523;DHT22;1272;53.332;9.860;2022-08-01T08:39:44;19.20;1.00
2523;DHT22;1272;53.332;9.860;2022-08-01T08:42:11;19.30;1.00
2523;DHT22;1272;53.332;9.860;2022-08-01T08:44:37;19.50;99.90
2523;DHT22;1272;53.332;9.860;2022-08-01T08:47:05;19.60;1.00
2523;DHT22;1272;53.332;9.860;2022-08-01T08:49:33;19.80;4.10
2523;DHT22;1272;53.332;9.860;2022-08-01T08:52:00;19.80;1.00
2523;DHT22;1272;53.332;9.860;2022-08-01T08:54:27;19.90;99.90
2523;DHT22;1272;53.332;9.860;2022-08-01T08:56:54;20.00;99.90
2523;DHT22;1272;53.332;9.860;2022-08-01T08:59:20;20.10;99.90
2523;DHT22;1272;53.332;9.860;2022-08-01T09:01:48;19.90;1.00
2523;DHT22;1272;53.332;9.860;2022-08-01T09:04:14;20.00;1.20
2523;DHT22;1272;53.332;9.860;2022-08-01T09:06:40;20.00;99.90
2523;DHT22;1272;53.332;9.860;2022-08-01T09:09:07;20.00;99.90
2523;DHT22;1272;53.332;9.860;2022-08-01T09:11:34;20.00;99.90
2523;DHT22;1272;53.332;9.860;2022-08-01T09:14:11;19.80;99.90
2523;DHT22;1272;53.332;9.860;2022-08-01T09:16:41;19.70;1.00
2523;DHT22;1272;53.332;9.860;2022-08-01T09:19:16;19.60;1.00
2523;DHT22;1272;53.332;9.860;2022-08-01T09:21:59;19.50;99.90
2523;DHT22;1272;53.332;9.860;2022-08-01T09:24:28;19.50;99.90
2523;DHT22;1272;53.332;9.860;2022-08-01T09:26:54;19.70;1.00
2523;DHT22;1272;53.332;9.860;2022-08-01T09:29:23;19.90;1.00
2523;DHT22;1272;53.332;9.860;2022-08-01T09:31:49;19.90;1.00
2523;DHT22;1272;53.332;9.860;2022-08-01T09:34:26;19.90;1.00
2523;DHT22;1272;53.332;9.860;2022-08-01T09:36:53;19.80;1.00
2523;DHT22;1272;53.332;9.860;2022-08-01T09:39:36;19.90;99.90
2523;DHT22;1272;53.332;9.860;2022-08-01T09:42:22;20.00;99.90
2523;DHT22;1272;53.332;9.860;2022-08-01T09:44:48;19.90;1.00
2523;DHT22;1272;53.332;9.860;2022-08-01T09:47:15;20.20;99.90
2523;DHT22;1272;53.332;9.860;2022-08-01T09:49:42;20.50;1.00
2523;DHT22;1272;53.332;9.860;2022-08-01T09:52:22;20.70;1.00
2523;DHT22;1272;53.332;9.860;2022-08-01T09:54:54;20.80;1.00
2523;DHT22;1272;53.332;9.860;2022-08-01T09:57:21;20.90;99.90
2523;DHT22;1272;53.332;9.860;2022-08-01T09:59:49;21.10;1.00
2523;DHT22;1272;53.332;9.860;2022-08-01T10:02:33;21.00;99.90
2523;DHT22;1272;53.332;9.860;2022-08-01T10:05:01;21.00;99.90
2523;DHT22;1272;53.332;9.860;2022-08-01T10:07:27;20.90;99.90
2523;DHT22;1272;53.332;9.860;2022-08-01T10:09:53;21.10;99.90
2523;DHT22;1272;53.332;9.860;2022-08-01T10:12:21;21.20;1.00
2523;DHT22;1272;53.332;9.860;2022-08-01T10:14:48;21.30;1.00
2523;DHT22;1272;53.332;9.860;2022-08-01T10:17:24;21.30;97.90
2523;DHT22;1272;53.332;9.860;2022-08-01T10:19:51;21.40;1.00
2523;DHT22;1272;53.332;9.860;2022-08-01T10:22:23;21.60;1.00
2523;DHT22;1272;53.332;9.860;2022-08-01T10:24:51;21.90;99.90
2523;DHT22;1272;53.332;9.860;2022-08-01T10:27:19;22.10;99.90
2523;DHT22;1272;53.332;9.860;2022-08-01T10:29:59;22.30;99.90
2523;DHT22;1272;53.332;9.860;2022-08-01T10:32:34;22.40;99.90
2523;DHT22;1272;53.332;9.860;2022-08-01T10:35:02;22.60;1.00
2523;DHT22;1272;53.332;9.860;2022-08-01T10:37:29;22.50;1.00
2523;DHT22;1272;53.332;9.860;2022-08-01T10:39:55;22.60;1.00
2523;DHT22;1272;53.332;9.860;2022-08-01T10:42:22;22.80;1.00
2523;DHT22;1272;53.332;9.860;2022-08-01T10:44:48;22.80;1.00
2523;DHT22;1272;53.332;9.860;2022-08-01T10:47:18;22.70;1.00
2523;DHT22;1272;53.332;9.860;2022-08-01T10:52:24;22.80;1.00
2523;DHT22;1272;53.332;9.860;2022-08-01T10:55:07;23.00;1.00
2523;DHT22;1272;53.332;9.860;2022-08-01T10:57:47;22.90;99.90
2523;DHT22;1272;53.332;9.860;2022-08-01T11:00:22;22.80;99.90
2523;DHT22;1272;53.332;9.860;2022-08-01T11:02:58;23.00;99.90
2523;DHT22;1272;53.332;9.860;2022-08-01T11:05:26;23.20;99.90
2523;DHT22;1272;53.332;9.860;2022-08-01T11:07:54;23.40;99.90
2523;DHT22;1272;53.332;9.860;2022-08-01T11:10:39;23.70;99.90
2523;DHT22;1272;53.332;9.860;2022-08-01T11:13:06;23.80;99.90
2523;DHT22;1272;53.332;9.860;2022-08-01T11:15:37;23.90;99.90
2523;DHT22;1272;53.332;9.860;2022-08-01T11:20:59;24.00;99.90
2523;DHT22;1272;53.332;9.860;2022-08-01T11:23:29;24.00;99.90
2523;DHT22;1272;53.332;9.860;2022-08-01T11:28:22;23.90;99.90
2523;DHT22;1272;53.332;9.860;2022-08-01T11:38:40;24.10;99.90
2523;DHT22;1272;53.332;9.860;2022-08-01T11:43:55;24.70;99.90
2523;DHT22;1272;53.332;9.860;2022-08-01T11:49:47;24.20;72.20
2523;DHT22;1272;53.332;9.860;2022-08-01T11:52:25;24.00;92.90
2523;DHT22;1272;53.332;9.860;2022-08-01T11:54:54;24.00;99.90
2523;DHT22;1272;53.332;9.860;2022-08-01T11:57:22;24.20;99.90
2523;DHT22;1272;53.332;9.860;2022-08-01T11:59:54;24.20;99.90
2523;DHT22;1272;53.332;9.860;2022-08-01T12:04:58;24.10;66.60
2523;DHT22;1272;53.332;9.860;2022-08-01T12:07:26;24.20;26.60
2523;DHT22;1272;53.332;9.860;2022-08-01T12:10:06;24.10;40.40
2523;DHT22;1272;53.332;9.860;2022-08-01T12:12:33;24.30;75.70
2523;DHT22;1272;53.332;9.860;2022-08-01T12:15:05;24.50;19.40
2523;DHT22;1272;53.332;9.860;2022-08-01T12:20:29;24.60;2.10
2523;DHT22;1272;53.332;9.860;2022-08-01T12:22:57;24.60;12.60
2523;DHT22;1272;53.332;9.860;2022-08-01T12:25:24;24.40;1.00
2523;DHT22;1272;53.332;9.860;2022-08-01T12:27:50;24.50;2.70
2523;DHT22;1272;53.332;9.860;2022-08-01T12:30:20;24.50;1.00
2523;DHT22;1272;53.332;9.860;2022-08-01T12:32:51;24.80;18.80
2523;DHT22;1272;53.332;9.860;2022-08-01T12:35:19;25.30;9.10
2523;DHT22;1272;53.332;9.860;2022-08-01T12:37:50;25.50;1.00
2523;DHT22;1272;53.332;9.860;2022-08-01T12:40:21;25.30;1.00
2523;DHT22;1272;53.332;9.860;2022-08-01T12:42:49;25.00;1.00
2523;DHT22;1272;53.332;9.860;2022-08-01T12:45:18;24.90;1.00
2523;DHT22;1272;53.332;9.860;2022-08-01T12:47:45;25.00;1.00
2523;DHT22;1272;53.332;9.860;2022-08-01T12:50:15;24.90;1.00
2523;DHT22;1272;53.332;9.860;2022-08-01T12:52:41;25.10;1.00
2523;DHT22;1272;53.332;9.860;2022-08-01T12:55:15;25.00;1.00
2523;DHT22;1272;53.332;9.860;2022-08-01T12:57:45;25.00;1.00
2523;DHT22;1272;53.332;9.860;2022-08-01T13:00:23;25.30;1.00
2523;DHT22;1272;53.332;9.860;2022-08-01T13:03:06;25.60;1.00
2523;DHT22;1272;53.332;9.860;2022-08-01T13:08:15;25.50;1.00
2523;DHT22;1272;53.332;9.860;2022-08-01T13:10:43;25.60;1.00
2523;DHT22;1272;53.332;9.860;2022-08-01T13:13:10;25.50;1.00
2523;DHT22;1272;53.332;9.860;2022-08-01T13:15:38;25.50;1.00
2523;DHT22;1272;53.332;9.860;2022-08-01T13:18:27;25.40;1.00
2523;DHT22;1272;53.332;9.860;2022-08-01T13:21:13;25.60;1.00
2523;DHT22;1272;53.332;9.860;2022-08-01T13:24:03;25.60;1.00
2523;DHT22;1272;53.332;9.860;2022-08-01T13:26:46;25.60;1.00
2523;DHT22;1272;53.332;9.860;2022-08-01T13:29:14;25.40;1.00
2523;DHT22;1272;53.332;9.860;2022-08-01T13:31:41;25.70;1.00
2523;DHT22;1272;53.332;9.860;2022-08-01T13:34:07;25.50;1.00
2523;DHT22;1272;53.332;9.860;2022-08-01T13:36:33;25.40;1.00
2523;DHT22;1272;53.332;9.860;2022-08-01T13:38:59;25.50;1.00
2523;DHT22;1272;53.332;9.860;2022-08-01T13:41:52;25.30;1.00
2523;DHT22;1272;53.332;9.860;2022-08-01T13:44:18;25.20;1.00
2523;DHT22;1272;53.332;9.860;2022-08-01T13:46:44;25.40;1.00
2523;DHT22;1272;53.332;9.860;2022-08-01T13:49:10;25.50;1.00
2523;DHT22;1272;53.332;9.860;2022-08-01T13:51:37;25.50;1.00
2523;DHT22;1272;53.332;9.860;2022-08-01T13:54:05;25.30;1.00
2523;DHT22;1272;53.332;9.860;2022-08-01T13:56:31;25.20;1.00
2523;DHT22;1272;53.332;9.860;2022-08-01T13:58:58;25.20;1.00
2523;DHT22;1272;53.332;9.860;2022-08-01T14:01:24;25.30;1.00
2523;DHT22;1272;53.332;9.860;2022-08-01T14:03:50;25.30;1.00
2523;DHT22;1272;53.332;9.860;2022-08-01T14:06:19;25.10;1.00
2523;DHT22;1272;53.332;9.860;2022-08-01T14:08:46;25.20;1.00
2523;DHT22;1272;53.332;9.860;2022-08-01T14:11:12;25.30;1.00
2523;DHT22;1272;53.332;9.860;2022-08-01T14:13:38;25.50;1.00
2523;DHT22;1272;53.332;9.860;2022-08-01T14:16:06;25.50;1.00
2523;DHT22;1272;53.332;9.860;2022-08-01T14:18:32;25.30;1.00
2523;DHT22;1272;53.332;9.860;2022-08-01T14:20:58;24.90;1.00
2523;DHT22;1272;53.332;9.860;2022-08-01T14:23:23;24.60;1.00
2523;DHT22;1272;53.332;9.860;2022-08-01T14:25:49;24.40;1.00
2523;DHT22;1272;53.332;9.860;2022-08-01T14:28:15;24.30;1.00
2523;DHT22;1272;53.332;9.860;2022-08-01T14:30:41;24.30;1.00
2523;DHT22;1272;53.332;9.860;2022-08-01T14:33:08;24.40;1.00
2523;DHT22;1272;53.332;9.860;2022-08-01T14:35:34;24.60;1.00
2523;DHT22;1272;53.332;9.860;2022-08-01T14:38:00;25.00;1.00
2523;DHT22;1272;53.332;9.860;2022-08-01T14:40:25;25.50;1.00
2523;DHT22;1272;53.332;9.860;2022-08-01T14:42:51;25.50;1.00
2523;DHT22;1272;53.332;9.860;2022-08-01T14:45:17;25.50;1.00
2523;DHT22;1272;53.332;9.860;2022-08-01T14:47:42;25.20;1.00
2523;DHT22;1272;53.332;9.860;2022-08-01T14:50:12;24.90;1.00
2523;DHT22;1272;53.332;9.860;2022-08-01T14:52:38;24.70;1.00
2523;DHT22;1272;53.332;9.860;2022-08-01T14:55:06;24.60;1.00
2523;DHT22;1272;53.332;9.860;2022-08-01T14:57:32;24.60;1.00
2523;DHT22;1272;53.332;9.860;2022-08-01T14:59:58;24.60;1.00
2523;DHT22;1272;53.332;9.860;2022-08-01T15:02:23;24.40;1.00
2523;DHT22;1272;53.332;9.860;2022-08-01T15:04:49;24.40;1.00
2523;DHT22;1272;53.332;9.860;2022-08-01T15:07:16;24.50;1.00
2523;DHT22;1272;53.332;9.860;2022-08-01T15:09:42;24.70;1.00
2523;DHT22;1272;53.332;9.860;2022-08-01T15:12:09;24.60;1.00
2523;DHT22;1272;53.332;9.860;2022-08-01T15:14:35;24.50;1.00
2523;DHT22;1272;53.332;9.860;2022-08-01T15:17:21;24.50;1.00
2523;DHT22;1272;53.332;9.860;2022-08-01T15:19:49;24.60;1.00
2523;DHT22;1272;53.332;9.860;2022-08-01T15:22:15;24.60;1.00
2523;DHT22;1272;53.332;9.860;2022-08-01T15:24:41;24.50;1.00
2523;DHT22;1272;53.332;9.860;2022-08-01T15:27:07;24.30;1.00
2523;DHT22;1272;53.332;9.860;2022-08-01T15:29:33;24.10;1.00
2523;DHT22;1272;53.332;9.860;2022-08-01T15:32:03;24.10;1.00
2523;DHT22;1272;53.332;9.860;2022-08-01T15:34:30;24.10;1.00
2523;DHT22;1272;53.332;9.860;2022-08-01T15:36:56;24.10;1.00
2523;DHT22;1272;53.332;9.860;2022-08-01T15:39:22;24.00;1.00
2523;DHT22;1272;53.332;9.860;2022-08-01T15:41:48;24.10;1.00
2523;DHT22;1272;53.332;9.860;2022-08-01T15:44:14;24.20;1.00
2523;DHT22;1272;53.332;9.860;2022-08-01T15:46:40;24.10;1.00
2523;DHT22;1272;53.332;9.860;2022-08-01T15:49:06;24.10;1.00
2523;DHT22;1272;53.332;9.860;2022-08-01T15:51:32;24.10;1.00
2523;DHT22;1272;53.332;9.860;2022-08-01T15:53:59;23.90;1.00
2523;DHT22;1272;53.332;9.860;2022-08-01T15:56:29;23.80;1.00
2523;DHT22;1272;53.332;9.860;2022-08-01T15:58:55;23.40;1.00
2523;DHT22;1272;53.332;9.860;2022-08-01T16:01:21;23.10;1.00
2523;DHT22;1272;53.332;9.860;2022-08-01T16:03:47;22.90;1.00
2523;DHT22;1272;53.332;9.860;2022-08-01T16:06:13;22.90;1.00
2523;DHT22;1272;53.332;9.860;2022-08-01T16:08:38;22.90;1.00
2523;DHT22;1272;53.332;9.860;2022-08-01T16:11:04;22.90;1.00
2523;DHT22;1272;53.332;9.860;2022-08-01T16:13:30;23.00;1.00
2523;DHT22;1272;53.332;9.860;2022-08-01T16:15:55;23.10;1.00
2523;DHT22;1272;53.332;9.860;2022-08-01T16:18:21;23.20;1.00
2523;DHT22;1272;53.332;9.860;2022-08-01T16:20:47;23.30;1.00
2523;DHT22;1272;53.332;9.860;2022-08-01T16:23:14;23.20;1.00
2523;DHT22;1272;53.332;9.860;2022-08-01T16:25:39;23.50;1.00
2523;DHT22;1272;53.332;9.860;2022-08-01T16:28:05;23.80;1.00
2523;DHT22;1272;53.332;9.860;2022-08-01T16:30:31;23.90;1.00
2523;DHT22;1272;53.332;9.860;2022-08-01T16:32:57;23.80;1.00
2523;DHT22;1272;53.332;9.860;2022-08-01T16:35:23;23.70;1.00
2523;DHT22;1272;53.332;9.860;2022-08-01T16:37:49;23.70;1.00
2523;DHT22;1272;53.332;9.860;2022-08-01T16:40:15;23.80;1.00
2523;DHT22;1272;53.332;9.860;2022-08-01T16:42:41;23.90;1.00
2523;DHT22;1272;53.332;9.860;2022-08-01T16:45:07;23.60;1.00
2523;DHT22;1272;53.332;9.860;2022-08-01T16:47:33;23.50;1.00
2523;DHT22;1272;53.332;9.860;2022-08-01T16:49:58;23.40;1.00
2523;DHT22;1272;53.332;9.860;2022-08-01T16:52:24;23.30;1.00
2523;DHT22;1272;53.332;9.860;2022-08-01T16:54:50;23.30;1.00
2523;DHT22;1272;53.332;9.860;2022-08-01T16:57:15;23.20;1.00